Time;durP1;ratioP1;P1;durP2;ratioP2;P2;SDS_P1;SDS_P2;PMS_P1;PMS_P2;Temp;Humidity;BMP_temperature;BMP_pressure;BME280_temperature;BME280_humidity;BME280_pressure;Samples;Min_cycle;Max_cycle;Signal;HPM_P1;HPM_P2
2022/01/24 00:02:14;;;;;;;77.97;37.85;;;;;;;;;;6157203;23;20453;-63
2022/01/24 00:04:40;;;;;;;110.15;53.53;;;;;;;;;;6156836;23;19993;-63
2022/01/24 00:07:06;;;;;;;138.98;69.55;;;;;;;;;;6130828;23;20036;-63
2022/01/24 00:09:32;;;;;;;105.70;52.33;;;;;;;;;;6156810;23;20001;-63
2022/01/24 00:17:11;;;;;;;89.43;42.25;;;;;;;;;;6156774;23;20009;-64
2022/01/24 00:27:50;;;;;;;84.47;39.70;;;;;;;;;;6156762;23;20002;-65
2022/01/24 00:30:16;;;;;;;84.82;39.55;;;;;;;;;;6156659;23;20008;-65
2022/01/24 00:32:41;;;;;;;78.97;38.38;;;;;;;;;;6156636;23;20423;-67
2022/01/24 00:35:07;;;;;;;81.82;39.50;;;;;;;;;;6156753;23;20001;-67
2022/01/24 00:37:33;;;;;;;84.30;39.05;;;;;;;;;;6156742;23;20093;-67
2022/01/24 00:39:59;;;;;;;81.47;39.30;;;;;;;;;;6156538;23;20024;-68
2022/01/24 00:42:40;;;;;;;80.38;38.10;;;;;;;;;;6156653;23;20422;-68
2022/01/24 00:45:27;;;;;;;79.07;38.85;;;;;;;;;;6130758;23;20029;-68
2022/01/24 00:53:18;;;;;;;92.70;42.00;;;;;;;;;;6156647;23;20009;-65
2022/01/24 00:55:45;;;;;;;88.07;40.67;;;;;;;;;;6156533;23;20010;-66
2022/01/24 00:58:10;;;;;;;89.88;41.42;;;;;;;;;;6156749;23;20000;-65
2022/01/24 01:00:37;;;;;;;82.60;38.78;;;;;;;;;;6156234;23;20014;-65
2022/01/24 01:03:02;;;;;;;84.95;38.30;;;;;;;;;;6156870;23;20068;-66
2022/01/24 01:18:03;;;;;;;75.90;38.55;;;;;;;;;;6155938;23;19998;-66
2022/01/24 01:18:57;;;;;;;68.00;34.70;;;;;;;;;;6156533;23;20010;-65
2022/01/24 01:21:22;;;;;;;80.97;37.80;;;;;;;;;;6156479;23;19997;-65
2022/01/24 01:23:52;;;;;;;77.30;37.65;;;;;;;;;;6156159;23;20041;-65
2022/01/24 01:26:25;;;;;;;71.63;36.33;;;;;;;;;;6156591;23;20036;-67
2022/01/24 01:28:56;;;;;;;73.88;37.00;;;;;;;;;;6156078;23;20060;-68
2022/01/24 01:31:32;;;;;;;70.40;35.65;;;;;;;;;;6156428;23;20037;-67
2022/01/24 01:56:09;;;;;;;62.58;30.98;;;;;;;;;;6099494;23;20020;-64
2022/01/24 01:58:34;;;;;;;69.70;34.40;;;;;;;;;;6156175;23;20437;-65
2022/01/24 02:01:01;;;;;;;69.78;33.92;;;;;;;;;;6156106;23;20033;-64
2022/01/24 02:03:27;;;;;;;67.60;33.70;;;;;;;;;;6156234;23;20013;-64
2022/01/24 02:05:53;;;;;;;69.15;32.95;;;;;;;;;;6156160;23;20016;-64
2022/01/24 02:08:30;;;;;;;73.03;35.17;;;;;;;;;;6105434;23;20084;-63
2022/01/24 02:10:58;;;;;;;75.03;36.13;;;;;;;;;;6156205;23;20010;-63
2022/01/24 02:13:25;;;;;;;78.15;37.10;;;;;;;;;;6155956;23;20056;-64
2022/01/24 02:16:02;;;;;;;462.70;189.05;;;;;;;;;;6156123;23;20012;-64
2022/01/24 02:23:40;;;;;;;94.43;42.75;;;;;;;;;;6131446;23;20041;-66
2022/01/24 02:26:10;;;;;;;81.75;39.58;;;;;;;;;;6131926;23;20014;-64
2022/01/24 02:29:48;;;;;;;77.57;39.72;;;;;;;;;;6158478;23;20307;-63
2022/01/24 02:34:23;;;;;;;85.97;44.13;;;;;;;;;;6158192;23;20034;-63
2022/01/24 02:36:50;;;;;;;81.63;41.85;;;;;;;;;;6131794;23;20008;-65
2022/01/24 02:53:09;;;;;;;57.20;28.75;;;;;;;;;;6128880;23;20013;-66
2022/01/24 02:55:38;;;;;;;53.70;28.38;;;;;;;;;;6157741;23;19998;-66
2022/01/24 02:58:03;;;;;;;49.40;25.65;;;;;;;;;;6157875;23;20005;-66
2022/01/24 03:00:29;;;;;;;56.35;28.88;;;;;;;;;;6157129;23;20014;-63
2022/01/24 03:02:55;;;;;;;56.83;28.90;;;;;;;;;;6157686;23;20010;-64
2022/01/24 03:05:20;;;;;;;57.08;28.95;;;;;;;;;;6157613;23;20052;-66
2022/01/24 03:07:45;;;;;;;58.00;28.85;;;;;;;;;;6157653;23;20001;-67
2022/01/24 03:10:24;;;;;;;59.70;29.63;;;;;;;;;;6157142;23;20000;-66
2022/01/24 03:12:58;;;;;;;49.95;25.27;;;;;;;;;;6157801;23;20013;-66
2022/01/24 03:15:24;;;;;;;55.90;28.17;;;;;;;;;;6157613;23;20052;-64
2022/01/24 03:17:49;;;;;;;46.80;25.45;;;;;;;;;;6157157;23;19997;-63
2022/01/24 03:20:15;;;;;;;47.03;24.67;;;;;;;;;;6157525;23;20056;-64
2022/01/24 03:22:40;;;;;;;45.88;23.65;;;;;;;;;;6157224;23;19998;-64
2022/01/24 03:25:06;;;;;;;52.80;26.65;;;;;;;;;;6131301;23;20005;-64
2022/01/24 03:27:31;;;;;;;53.80;24.77;;;;;;;;;;6157473;23;20394;-62
2022/01/24 03:29:56;;;;;;;49.72;26.77;;;;;;;;;;6157194;23;20016;-62
2022/01/24 03:32:22;;;;;;;49.78;25.88;;;;;;;;;;6157440;23;20082;-62
2022/01/24 03:34:47;;;;;;;53.25;26.27;;;;;;;;;;6157148;23;20005;-62
2022/01/24 03:37:12;;;;;;;49.30;25.60;;;;;;;;;;6157583;23;20021;-62
2022/01/24 03:39:39;;;;;;;54.55;27.17;;;;;;;;;;6157296;23;20002;-67
2022/01/24 03:42:04;;;;;;;62.40;35.28;;;;;;;;;;6157416;23;19998;-63
2022/01/24 03:44:30;;;;;;;63.55;37.03;;;;;;;;;;6157013;23;20329;-64
2022/01/24 03:47:18;;;;;;;53.35;28.83;;;;;;;;;;6157187;23;20001;-62
2022/01/24 03:49:52;;;;;;;49.10;24.33;;;;;;;;;;6157293;23;20005;-63
2022/01/24 03:52:18;;;;;;;51.80;26.02;;;;;;;;;;6156970;23;20017;-62
2022/01/24 03:54:44;;;;;;;50.33;25.63;;;;;;;;;;6157029;23;20489;-62
2022/01/24 03:57:13;;;;;;;87.20;39.53;;;;;;;;;;6156934;23;20032;-62
2022/01/24 03:59:38;;;;;;;83.90;41.33;;;;;;;;;;6156127;23;20037;-64
2022/01/24 04:02:05;;;;;;;78.65;39.88;;;;;;;;;;6157407;23;20016;-63
2022/01/24 04:04:30;;;;;;;88.72;46.63;;;;;;;;;;6156815;23;20103;-63
2022/01/24 04:06:57;;;;;;;99.03;56.40;;;;;;;;;;6157381;23;20466;-62
2022/01/24 04:09:22;;;;;;;139.50;60.22;;;;;;;;;;6156723;23;20076;-65
2022/01/24 04:11:52;;;;;;;127.00;52.00;;;;;;;;;;6156783;23;20032;-65
2022/01/24 04:22:18;;;;;;;51.22;24.73;;;;;;;;;;6131016;23;20092;-63
2022/01/24 04:24:45;;;;;;;97.10;37.88;;;;;;;;;;6157092;23;20011;-63
2022/01/24 04:27:11;;;;;;;72.18;32.47;;;;;;;;;;6156756;23;19998;-63
2022/01/24 04:29:37;;;;;;;69.53;30.70;;;;;;;;;;6156714;23;20009;-64
2022/01/24 04:32:03;;;;;;;229.45;70.78;;;;;;;;;;6156906;23;20326;-63
2022/01/24 04:34:28;;;;;;;165.10;54.08;;;;;;;;;;6156391;23;20089;-63
2022/01/24 04:36:54;;;;;;;199.13;63.05;;;;;;;;;;6156556;23;20339;-64
2022/01/24 04:39:20;;;;;;;94.28;38.17;;;;;;;;;;6156641;23;20002;-64
2022/01/24 04:41:49;;;;;;;125.03;47.15;;;;;;;;;;6156661;23;20051;-63
2022/01/24 04:44:48;;;;;;;132.68;49.30;;;;;;;;;;6156716;23;20009;-66
2022/01/24 04:54:51;;;;;;;52.63;29.02;;;;;;;;;;6156093;23;20001;-64
2022/01/24 04:57:27;;;;;;;54.05;30.63;;;;;;;;;;6156334;23;20092;-64
2022/01/24 04:59:54;;;;;;;56.00;33.38;;;;;;;;;;6155778;23;20439;-63
2022/01/24 05:02:20;;;;;;;49.42;29.65;;;;;;;;;;6156242;23;20052;-64
2022/01/24 05:04:46;;;;;;;55.22;34.47;;;;;;;;;;6155849;23;20113;-63
2022/01/24 05:07:12;;;;;;;52.42;27.83;;;;;;;;;;6156583;23;20410;-64
2022/01/24 05:09:45;;;;;;;52.30;29.58;;;;;;;;;;6156283;23;20018;-63
2022/01/24 05:25:40;;;;;;;446.33;165.80;;;;;;;;;;6156540;23;20080;-64
2022/01/24 05:28:05;;;;;;;323.92;110.93;;;;;;;;;;6156270;23;19994;-64
2022/01/24 05:30:31;;;;;;;274.05;110.70;;;;;;;;;;6156155;23;20100;-64
2022/01/24 05:32:56;;;;;;;49.80;24.35;;;;;;;;;;6155921;23;20024;-64
2022/01/24 05:35:22;;;;;;;51.65;29.25;;;;;;;;;;6155607;23;20029;-62
2022/01/24 05:37:47;;;;;;;67.47;38.67;;;;;;;;;;6156391;23;19994;-62
2022/01/24 05:40:13;;;;;;;124.82;68.82;;;;;;;;;;6156385;23;20038;-62
2022/01/24 05:42:38;;;;;;;94.15;56.53;;;;;;;;;;6156270;23;20319;-62
2022/01/24 05:45:05;;;;;;;51.03;29.83;;;;;;;;;;6155950;23;20064;-62
2022/01/24 05:47:30;;;;;;;48.55;28.80;;;;;;;;;;6156243;23;20009;-61
2022/01/24 05:49:55;;;;;;;50.40;30.55;;;;;;;;;;6156132;23;20020;-62
2022/01/24 05:52:21;;;;;;;61.70;40.25;;;;;;;;;;6156104;23;20414;-62
2022/01/24 05:54:46;;;;;;;52.47;33.03;;;;;;;;;;6155935;23;20531;-62
2022/01/24 05:57:12;;;;;;;50.05;32.55;;;;;;;;;;6155984;23;19997;-63
2022/01/24 05:59:38;;;;;;;55.03;33.65;;;;;;;;;;6155240;23;20013;-64
2022/01/24 06:02:03;;;;;;;57.42;34.33;;;;;;;;;;6155608;23;20033;-65
2022/01/24 06:04:29;;;;;;;70.22;43.65;;;;;;;;;;6156221;23;20009;-65
2022/01/24 06:06:55;;;;;;;63.13;39.50;;;;;;;;;;6155855;23;20009;-65
2022/01/24 06:09:20;;;;;;;52.50;31.27;;;;;;;;;;6156038;23;20013;-65
2022/01/24 06:11:45;;;;;;;116.65;61.28;;;;;;;;;;6156094;23;20001;-64
2022/01/24 06:14:13;;;;;;;134.40;68.30;;;;;;;;;;6156260;23;20473;-65
2022/01/24 06:16:40;;;;;;;106.75;61.08;;;;;;;;;;6130211;23;20008;-65
2022/01/24 06:19:05;;;;;;;99.43;57.95;;;;;;;;;;6156311;23;20006;-65
2022/01/24 06:21:32;;;;;;;83.18;47.53;;;;;;;;;;6156438;23;20026;-65
2022/01/24 06:23:57;;;;;;;91.57;51.75;;;;;;;;;;6155994;23;20017;-65
2022/01/24 06:26:24;;;;;;;74.45;43.78;;;;;;;;;;6156044;23;20002;-64
2022/01/24 06:28:49;;;;;;;80.97;46.33;;;;;;;;;;6155674;23;20513;-64
2022/01/24 06:31:14;;;;;;;89.25;52.58;;;;;;;;;;6156010;23;20025;-64
2022/01/24 06:33:40;;;;;;;94.50;55.03;;;;;;;;;;6156228;23;20065;-64
2022/01/24 06:36:05;;;;;;;83.70;52.17;;;;;;;;;;6155810;23;20326;-64
2022/01/24 06:38:31;;;;;;;80.75;48.88;;;;;;;;;;6155748;23;20001;-62
2022/01/24 06:40:57;;;;;;;62.25;36.80;;;;;;;;;;6156168;23;20005;-62
2022/01/24 06:43:22;;;;;;;53.45;31.45;;;;;;;;;;6156093;23;20009;-65
2022/01/24 06:45:48;;;;;;;62.00;35.20;;;;;;;;;;6156038;23;20002;-65
2022/01/24 06:48:13;;;;;;;55.05;32.53;;;;;;;;;;6155638;23;20012;-65
2022/01/24 06:50:39;;;;;;;62.50;34.33;;;;;;;;;;6155653;23;20363;-64
2022/01/24 06:53:04;;;;;;;69.05;36.67;;;;;;;;;;6155611;23;20415;-65
2022/01/24 06:55:30;;;;;;;68.18;34.78;;;;;;;;;;6155227;23;19998;-64
2022/01/24 06:57:55;;;;;;;105.70;53.72;;;;;;;;;;6155728;23;20006;-65
2022/01/24 07:00:25;;;;;;;136.43;67.00;;;;;;;;;;6155404;23;20041;-65
2022/01/24 07:02:52;;;;;;;127.20;63.90;;;;;;;;;;6155835;23;20080;-65
2022/01/24 07:05:17;;;;;;;133.13;66.35;;;;;;;;;;6156015;23;20024;-65
2022/01/24 07:07:43;;;;;;;136.70;68.30;;;;;;;;;;6156964;23;20037;-65
2022/01/24 07:10:08;;;;;;;127.53;65.75;;;;;;;;;;6156969;23;20048;-65
2022/01/24 07:12:34;;;;;;;145.48;79.10;;;;;;;;;;6157008;23;20006;-65
2022/01/24 07:15:06;;;;;;;122.85;64.35;;;;;;;;;;6157100;23;20001;-65
2022/01/24 07:17:56;;;;;;;140.95;72.65;;;;;;;;;;6157069;23;20012;-65
2022/01/24 07:20:18;;;;;;;117.20;61.08;;;;;;;;;;6156947;23;20006;-65
2022/01/24 07:22:43;;;;;;;121.38;64.13;;;;;;;;;;6157008;23;20430;-65
2022/01/24 07:25:09;;;;;;;134.50;68.50;;;;;;;;;;6156754;23;20016;-65
2022/01/24 07:27:34;;;;;;;128.85;66.00;;;;;;;;;;6156814;23;20008;-65
2022/01/24 07:30:01;;;;;;;131.38;66.78;;;;;;;;;;6156737;23;20016;-66
2022/01/24 07:32:27;;;;;;;121.65;62.85;;;;;;;;;;6156693;23;20414;-65
2022/01/24 07:34:54;;;;;;;133.43;66.75;;;;;;;;;;6156619;23;20033;-65
2022/01/24 07:37:21;;;;;;;167.52;78.72;;;;;;;;;;6156744;23;20005;-65
2022/01/24 07:39:47;;;;;;;181.10;81.18;;;;;;;;;;6156841;23;20005;-65
2022/01/24 07:42:27;;;;;;;140.02;62.75;;;;;;;;;;6156828;23;20006;-65
2022/01/24 07:44:53;;;;;;;95.85;45.15;;;;;;;;;;6156919;23;20005;-65
2022/01/24 07:47:19;;;;;;;131.88;64.68;;;;;;;;;;6156729;23;20025;-65
2022/01/24 07:49:44;;;;;;;163.15;93.20;;;;;;;;;;6156718;23;20338;-65
2022/01/24 07:52:10;;;;;;;186.18;113.72;;;;;;;;;;6130817;23;19997;-64
2022/01/24 07:54:35;;;;;;;157.57;100.65;;;;;;;;;;6157005;23;20010;-65
2022/01/24 07:57:01;;;;;;;111.35;73.70;;;;;;;;;;6157039;23;20021;-64
2022/01/24 07:59:26;;;;;;;105.60;64.13;;;;;;;;;;6156406;23;20426;-65
2022/01/24 08:01:52;;;;;;;115.20;70.05;;;;;;;;;;6157299;23;20009;-64
2022/01/24 08:04:17;;;;;;;105.55;64.30;;;;;;;;;;6157097;23;20013;-64
2022/01/24 08:06:43;;;;;;;83.78;49.50;;;;;;;;;;6156688;23;20016;-63
2022/01/24 08:09:09;;;;;;;71.40;41.80;;;;;;;;;;6156648;23;20037;-63
2022/01/24 08:11:35;;;;;;;76.95;43.72;;;;;;;;;;6157093;23;20397;-63
2022/01/24 08:14:02;;;;;;;80.82;45.30;;;;;;;;;;6156660;23;20090;-63
2022/01/24 08:16:27;;;;;;;113.70;54.80;;;;;;;;;;6156206;23;19998;-63
2022/01/24 08:18:55;;;;;;;77.63;40.58;;;;;;;;;;6156386;23;20009;-63
2022/01/24 08:21:20;;;;;;;74.65;39.72;;;;;;;;;;6156249;23;20002;-63
2022/01/24 08:23:46;;;;;;;60.65;31.98;;;;;;;;;;6156352;23;20084;-63
2022/01/24 08:26:12;;;;;;;55.22;29.90;;;;;;;;;;6156277;23;20457;-62
2022/01/24 08:28:37;;;;;;;60.97;33.50;;;;;;;;;;6156255;23;20378;-63
2022/01/24 08:31:02;;;;;;;78.22;43.33;;;;;;;;;;6156243;23;20002;-63
2022/01/24 08:33:28;;;;;;;66.10;37.95;;;;;;;;;;6156330;23;20491;-63
2022/01/24 08:35:53;;;;;;;60.75;35.30;;;;;;;;;;6130039;23;20024;-62
2022/01/24 08:38:23;;;;;;;62.28;36.70;;;;;;;;;;6156096;23;20006;-62
2022/01/24 08:40:52;;;;;;;66.68;39.83;;;;;;;;;;6156149;23;20414;-63
2022/01/24 08:43:35;;;;;;;63.85;37.72;;;;;;;;;;6156257;23;20040;-63
2022/01/24 08:46:00;;;;;;;75.22;42.17;;;;;;;;;;6155747;23;20014;-62
2022/01/24 08:48:26;;;;;;;77.28;45.13;;;;;;;;;;6156218;23;20005;-62
2022/01/24 08:50:53;;;;;;;91.85;51.10;;;;;;;;;;6155948;23;20096;-62
2022/01/24 08:53:18;;;;;;;87.95;49.08;;;;;;;;;;6156050;23;20111;-62
2022/01/24 08:55:44;;;;;;;83.47;45.42;;;;;;;;;;6156032;23;20319;-63
2022/01/24 08:58:13;;;;;;;85.18;47.35;;;;;;;;;;6156064;23;19993;-62
2022/01/24 09:00:40;;;;;;;60.70;33.85;;;;;;;;;;6155454;23;20109;-62
2022/01/24 09:03:05;;;;;;;58.35;30.10;;;;;;;;;;6155992;23;20041;-64
2022/01/24 09:05:34;;;;;;;44.33;23.90;;;;;;;;;;6155936;23;20005;-64
2022/01/24 09:08:00;;;;;;;36.47;21.35;;;;;;;;;;6155801;23;19998;-64
2022/01/24 09:10:25;;;;;;;38.35;22.25;;;;;;;;;;6155655;23;20057;-64
2022/01/24 09:12:51;;;;;;;42.72;21.95;;;;;;;;;;6155689;23;20080;-64
2022/01/24 09:15:16;;;;;;;63.22;35.60;;;;;;;;;;6155752;23;19997;-64
2022/01/24 09:17:43;;;;;;;60.35;32.42;;;;;;;;;;6155815;23;20001;-64
2022/01/24 09:20:09;;;;;;;62.45;32.22;;;;;;;;;;6155716;23;20058;-65
2022/01/24 09:22:35;;;;;;;59.67;31.70;;;;;;;;;;6155777;23;20319;-64
2022/01/24 09:25:00;;;;;;;409.38;46.28;;;;;;;;;;6155737;23;20005;-64
2022/01/24 09:27:26;;;;;;;58.47;32.05;;;;;;;;;;6155788;23;19997;-64
2022/01/24 09:29:51;;;;;;;65.10;32.47;;;;;;;;;;6155900;23;20084;-64
2022/01/24 09:32:17;;;;;;;62.58;31.38;;;;;;;;;;6155696;23;20009;-64
2022/01/24 09:34:42;;;;;;;59.35;29.92;;;;;;;;;;6155767;23;20021;-64
2022/01/24 09:37:08;;;;;;;90.57;45.28;;;;;;;;;;6155558;23;20016;-64
2022/01/24 09:39:34;;;;;;;91.07;47.08;;;;;;;;;;6155754;23;19998;-64
2022/01/24 09:41:59;;;;;;;85.53;42.08;;;;;;;;;;6129178;23;20029;-63
2022/01/24 09:44:25;;;;;;;70.20;36.53;;;;;;;;;;6155807;23;20025;-64
2022/01/24 09:46:50;;;;;;;62.65;33.30;;;;;;;;;;6155619;23;20072;-64
2022/01/24 09:49:16;;;;;;;63.10;33.83;;;;;;;;;;6155783;23;20486;-64
2022/01/24 09:51:44;;;;;;;54.25;30.38;;;;;;;;;;6155538;23;20068;-64
2022/01/24 09:54:10;;;;;;;46.13;27.27;;;;;;;;;;6155442;23;20044;-64
2022/01/24 09:56:35;;;;;;;44.05;24.77;;;;;;;;;;6155618;23;19998;-64
2022/01/24 09:59:01;;;;;;;39.97;23.10;;;;;;;;;;6155450;23;20009;-64
2022/01/24 10:01:27;;;;;;;45.25;22.63;;;;;;;;;;6155451;23;20345;-64
2022/01/24 10:04:05;;;;;;;42.83;24.42;;;;;;;;;;6155687;23;20006;-64
2022/01/24 10:06:50;;;;;;;41.25;22.15;;;;;;;;;;6155614;23;20468;-64
2022/01/24 10:09:15;;;;;;;37.05;22.27;;;;;;;;;;6155355;23;20006;-64
2022/01/24 10:11:41;;;;;;;33.65;20.27;;;;;;;;;;6155484;23;20006;-64
2022/01/24 10:16:55;;;;;;;37.55;21.88;;;;;;;;;;6155702;23;20040;-64
2022/01/24 10:19:21;;;;;;;38.20;21.88;;;;;;;;;;6155487;23;19994;-64
2022/01/24 10:21:47;;;;;;;30.90;18.05;;;;;;;;;;6155486;23;20311;-65
2022/01/24 10:24:32;;;;;;;32.55;19.27;;;;;;;;;;6155700;23;20012;-64
2022/01/24 10:27:05;;;;;;;29.27;17.20;;;;;;;;;;6155170;23;20017;-64
2022/01/24 10:29:31;;;;;;;22.40;14.57;;;;;;;;;;6155656;23;20009;-64
2022/01/24 10:31:56;;;;;;;22.05;14.80;;;;;;;;;;6155626;23;20012;-64
2022/01/24 10:34:28;;;;;;;27.60;16.98;;;;;;;;;;6155468;23;20377;-64
2022/01/24 10:36:57;;;;;;;42.22;23.33;;;;;;;;;;6155289;23;20001;-63
2022/01/24 10:39:29;;;;;;;36.40;21.13;;;;;;;;;;6155316;23;20473;-64
2022/01/24 10:42:31;;;;;;;31.20;18.90;;;;;;;;;;6157544;23;20009;-63
2022/01/24 10:44:57;;;;;;;39.25;20.65;;;;;;;;;;6157181;23;20012;-64
2022/01/24 10:47:27;;;;;;;37.40;21.15;;;;;;;;;;6157288;23;20129;-64
2022/01/24 10:49:52;;;;;;;39.40;21.67;;;;;;;;;;6157262;23;20025;-64
2022/01/24 10:52:28;;;;;;;33.10;18.50;;;;;;;;;;6157074;23;20006;-64
2022/01/24 10:55:09;;;;;;;29.48;16.05;;;;;;;;;;6157180;23;20005;-65
2022/01/24 10:57:35;;;;;;;26.45;14.07;;;;;;;;;;6106880;23;20012;-63
2022/01/24 11:00:05;;;;;;;38.25;18.85;;;;;;;;;;6156548;23;20104;-64
2022/01/24 11:02:40;;;;;;;41.20;19.75;;;;;;;;;;6157256;23;20049;-65
2022/01/24 11:05:20;;;;;;;38.20;19.58;;;;;;;;;;6157230;23;20013;-65
2022/01/24 11:07:59;;;;;;;41.22;20.80;;;;;;;;;;6157055;23;20005;-65
2022/01/24 11:10:26;;;;;;;37.42;21.20;;;;;;;;;;6156950;23;20028;-65
2022/01/24 11:12:52;;;;;;;64.30;30.40;;;;;;;;;;6130754;23;20008;-65
2022/01/24 11:15:19;;;;;;;50.35;24.98;;;;;;;;;;6156939;23;20014;-65
2022/01/24 11:17:44;;;;;;;47.17;21.67;;;;;;;;;;6157069;23;19997;-65
2022/01/24 11:20:13;;;;;;;55.10;23.85;;;;;;;;;;6156964;23;20465;-63
2022/01/24 11:22:44;;;;;;;43.30;23.17;;;;;;;;;;6156956;23;19998;-64
2022/01/24 11:25:11;;;;;;;44.85;23.15;;;;;;;;;;6157051;23;20019;-64
2022/01/24 11:27:38;;;;;;;62.30;31.40;;;;;;;;;;6156932;23;20002;-64
2022/01/24 11:30:29;;;;;;;69.78;34.60;;;;;;;;;;6156748;23;20389;-64
2022/01/24 11:32:59;;;;;;;44.20;22.80;;;;;;;;;;6146546;23;20017;-64
2022/01/24 11:35:29;;;;;;;44.23;21.13;;;;;;;;;;6157306;23;20016;-64
2022/01/24 11:37:56;;;;;;;111.88;54.85;;;;;;;;;;6157474;23;20080;-64
2022/01/24 11:40:24;;;;;;;47.40;24.38;;;;;;;;;;6157333;23;19994;-64
2022/01/24 11:42:52;;;;;;;43.20;22.80;;;;;;;;;;6156904;23;20389;-64
2022/01/24 11:45:31;;;;;;;46.42;22.92;;;;;;;;;;6157083;23;20010;-64
2022/01/24 11:48:12;;;;;;;37.00;20.17;;;;;;;;;;6157733;23;20348;-64
2022/01/24 11:50:38;;;;;;;42.20;20.45;;;;;;;;;;6156843;23;20009;-64
2022/01/24 11:53:19;;;;;;;34.90;18.75;;;;;;;;;;6157166;23;20125;-64
2022/01/24 11:55:45;;;;;;;35.72;18.98;;;;;;;;;;6157039;23;20006;-64
2022/01/24 11:58:10;;;;;;;41.67;20.38;;;;;;;;;;6156391;23;20413;-65
2022/01/24 12:00:40;;;;;;;46.70;24.05;;;;;;;;;;6156135;23;20350;-64
2022/01/24 12:03:16;;;;;;;37.53;19.20;;;;;;;;;;6156594;23;20005;-65
2022/01/24 12:05:48;;;;;;;52.70;25.02;;;;;;;;;;6156562;23;20520;-64
2022/01/24 12:08:27;;;;;;;31.35;16.98;;;;;;;;;;6156843;23;20016;-64
2022/01/24 12:10:55;;;;;;;33.00;17.27;;;;;;;;;;6157207;23;20002;-65
2022/01/24 12:13:31;;;;;;;31.90;17.85;;;;;;;;;;6156758;23;20414;-64
2022/01/24 12:15:58;;;;;;;30.60;16.45;;;;;;;;;;6156833;23;20457;-64
2022/01/24 12:18:27;;;;;;;26.83;14.27;;;;;;;;;;6156638;23;20310;-64
2022/01/24 12:20:55;;;;;;;23.42;13.20;;;;;;;;;;6156693;23;20013;-64
2022/01/24 12:23:24;;;;;;;22.20;12.85;;;;;;;;;;6157007;23;20001;-65
2022/01/24 12:25:50;;;;;;;21.50;12.65;;;;;;;;;;6156530;23;20045;-66
2022/01/24 12:28:19;;;;;;;21.42;13.00;;;;;;;;;;6156894;23;20005;-64
2022/01/24 12:30:59;;;;;;;20.83;12.77;;;;;;;;;;6156379;23;20005;-64
2022/01/24 12:33:38;;;;;;;30.98;14.65;;;;;;;;;;6156374;23;20006;-64
2022/01/24 12:36:05;;;;;;;29.17;16.77;;;;;;;;;;6156254;23;20464;-64
2022/01/24 12:38:44;;;;;;;40.45;18.48;;;;;;;;;;6156188;23;20005;-64
2022/01/24 12:41:29;;;;;;;32.28;16.70;;;;;;;;;;6155970;23;20330;-65
2022/01/24 12:46:30;;;;;;;140.65;78.22;;;;;;;;;;6156348;23;20005;-64
2022/01/24 12:49:01;;;;;;;212.13;89.35;;;;;;;;;;6156293;23;20010;-64
2022/01/24 12:51:28;;;;;;;79.53;37.05;;;;;;;;;;6155928;23;20005;-64
2022/01/24 12:53:54;;;;;;;85.00;37.58;;;;;;;;;;6156012;23;20001;-65
2022/01/24 12:56:24;;;;;;;49.15;25.08;;;;;;;;;;6156142;23;20438;-64
2022/01/24 12:58:49;;;;;;;30.80;16.85;;;;;;;;;;6156045;23;19993;-64
2022/01/24 13:01:29;;;;;;;42.85;22.40;;;;;;;;;;6155858;23;20018;-64
2022/01/24 13:03:57;;;;;;;54.40;27.90;;;;;;;;;;6155764;23;20009;-64
2022/01/24 13:06:24;;;;;;;70.43;32.53;;;;;;;;;;6156046;23;20140;-64
2022/01/24 13:08:52;;;;;;;45.58;22.90;;;;;;;;;;6156059;23;20012;-64
2022/01/24 13:11:17;;;;;;;45.95;23.73;;;;;;;;;;6155905;23;20072;-64
2022/01/24 13:14:04;;;;;;;37.20;21.10;;;;;;;;;;6156031;23;20018;-65
2022/01/24 13:22:20;;;;;;;33.08;18.85;;;;;;;;;;6155263;23;20442;-65
2022/01/24 13:25:01;;;;;;;30.67;17.33;;;;;;;;;;6130138;23;20312;-64
2022/01/24 13:27:56;;;;;;;26.52;15.35;;;;;;;;;;6155802;23;20005;-65
2022/01/24 13:30:24;;;;;;;27.23;16.30;;;;;;;;;;6136696;23;20553;-65
2022/01/24 13:32:51;;;;;;;28.92;16.67;;;;;;;;;;6155876;23;20001;-66
2022/01/24 13:35:30;;;;;;;33.72;18.65;;;;;;;;;;6155757;23;20060;-66
2022/01/24 13:38:03;;;;;;;31.67;17.85;;;;;;;;;;6155844;23;20089;-65
2022/01/24 13:40:53;;;;;;;30.80;18.13;;;;;;;;;;6155915;23;20085;-66
2022/01/24 13:43:39;;;;;;;32.47;18.27;;;;;;;;;;6155590;23;20002;-65
2022/01/24 13:46:06;;;;;;;32.75;17.85;;;;;;;;;;6140261;23;20009;-65
2022/01/24 13:48:41;;;;;;;28.08;16.15;;;;;;;;;;6155882;23;20434;-65
2022/01/24 13:51:07;;;;;;;24.75;15.05;;;;;;;;;;6155859;23;20001;-65
2022/01/24 13:53:35;;;;;;;35.65;20.80;;;;;;;;;;6155685;23;20002;-65
2022/01/24 13:56:14;;;;;;;224.77;99.47;;;;;;;;;;6155736;23;20425;-65
2022/01/24 13:58:40;;;;;;;40.55;24.08;;;;;;;;;;6155801;23;20001;-65
2022/01/24 14:01:05;;;;;;;83.45;42.47;;;;;;;;;;6155250;23;20319;-64
2022/01/24 14:03:31;;;;;;;42.85;23.95;;;;;;;;;;6155557;23;20394;-64
2022/01/24 14:06:15;;;;;;;95.97;42.55;;;;;;;;;;6155574;23;20037;-64
2022/01/24 14:08:41;;;;;;;426.27;185.63;;;;;;;;;;6155588;23;20134;-64
2022/01/24 14:11:14;;;;;;;453.60;190.80;;;;;;;;;;6155515;23;20088;-64
2022/01/24 14:13:45;;;;;;;399.08;163.15;;;;;;;;;;6155840;23;20012;-64
2022/01/24 14:16:23;;;;;;;664.85;315.75;;;;;;;;;;6157713;23;20006;-64
2022/01/24 14:18:59;;;;;;;499.92;260.42;;;;;;;;;;6131036;23;20005;-64
2022/01/24 14:21:24;;;;;;;148.52;69.05;;;;;;;;;;6157472;23;20005;-64
2022/01/24 14:23:50;;;;;;;90.15;46.17;;;;;;;;;;6157471;23;20370;-64
2022/01/24 14:26:16;;;;;;;48.90;26.27;;;;;;;;;;6157598;23;20056;-64
2022/01/24 14:28:42;;;;;;;59.75;36.72;;;;;;;;;;6157558;23;20437;-64
2022/01/24 14:31:14;;;;;;;69.93;43.15;;;;;;;;;;6157435;23;20013;-64
2022/01/24 14:33:44;;;;;;;57.15;37.35;;;;;;;;;;6157436;23;20017;-65
2022/01/24 14:36:13;;;;;;;52.58;32.15;;;;;;;;;;6157268;23;20005;-64
2022/01/24 14:38:43;;;;;;;40.08;24.55;;;;;;;;;;6157320;23;20005;-64
2022/01/24 14:41:15;;;;;;;44.25;27.30;;;;;;;;;;6157286;23;20452;-64
2022/01/24 14:46:27;;;;;;;47.22;31.98;;;;;;;;;;6157242;23;20316;-64
2022/01/24 14:49:04;;;;;;;43.15;27.27;;;;;;;;;;6157283;23;19997;-64
2022/01/24 14:51:31;;;;;;;43.72;24.70;;;;;;;;;;6157248;23;20009;-64
2022/01/24 14:53:58;;;;;;;50.08;30.02;;;;;;;;;;6157111;23;20029;-65
2022/01/24 14:56:24;;;;;;;44.83;29.08;;;;;;;;;;6157337;23;19997;-65
2022/01/24 14:58:50;;;;;;;37.35;24.20;;;;;;;;;;6157205;23;20072;-65
2022/01/24 15:01:16;;;;;;;54.92;32.00;;;;;;;;;;6156936;23;20457;-65
2022/01/24 15:03:42;;;;;;;90.43;46.47;;;;;;;;;;6157136;23;20006;-64
2022/01/24 15:06:08;;;;;;;73.72;40.53;;;;;;;;;;6157063;23;20390;-65
2022/01/24 15:08:34;;;;;;;59.63;32.63;;;;;;;;;;6157068;23;20004;-65
2022/01/24 15:11:00;;;;;;;44.58;23.13;;;;;;;;;;6157045;23;20033;-64
2022/01/24 15:13:32;;;;;;;31.92;19.33;;;;;;;;;;6130539;23;19997;-65
2022/01/24 15:16:12;;;;;;;78.95;34.65;;;;;;;;;;6156916;23;20016;-65
2022/01/24 15:26:51;;;;;;;214.93;92.63;;;;;;;;;;6157424;23;20005;-62
2022/01/24 15:29:18;;;;;;;100.72;43.33;;;;;;;;;;6156826;23;20009;-62
2022/01/24 15:31:47;;;;;;;49.22;24.45;;;;;;;;;;6130604;23;20450;-62
2022/01/24 15:34:14;;;;;;;38.53;19.98;;;;;;;;;;6156712;23;20015;-62
2022/01/24 15:36:41;;;;;;;45.60;22.80;;;;;;;;;;6156622;23;20338;-63
2022/01/24 15:39:09;;;;;;;37.30;19.85;;;;;;;;;;6130813;23;20004;-62
2022/01/24 15:41:45;;;;;;;38.30;20.00;;;;;;;;;;6156605;23;20430;-62
2022/01/24 15:44:34;;;;;;;36.20;20.48;;;;;;;;;;6156586;23;20064;-63
2022/01/24 15:47:03;;;;;;;40.90;23.52;;;;;;;;;;6130006;23;20385;-61
2022/01/24 15:49:29;;;;;;;78.43;44.20;;;;;;;;;;6130678;23;20020;-63
2022/01/24 15:51:55;;;;;;;78.32;42.63;;;;;;;;;;6156637;23;20002;-62
2022/01/24 15:54:24;;;;;;;53.55;29.20;;;;;;;;;;6156834;23;20428;-62
2022/01/24 15:59:33;;;;;;;46.63;25.70;;;;;;;;;;6156741;23;20009;-63
2022/01/24 16:01:59;;;;;;;44.85;25.30;;;;;;;;;;6157064;23;20442;-62
2022/01/24 16:04:24;;;;;;;99.65;52.30;;;;;;;;;;6157196;23;20460;-62
2022/01/24 16:06:50;;;;;;;78.10;42.67;;;;;;;;;;6156428;23;20005;-62
2022/01/24 16:09:15;;;;;;;80.47;46.35;;;;;;;;;;6156961;23;20358;-62
2022/01/24 16:11:41;;;;;;;99.95;50.17;;;;;;;;;;6156817;23;20044;-62
2022/01/24 16:14:08;;;;;;;94.18;47.15;;;;;;;;;;6156665;23;20444;-62
2022/01/24 16:16:35;;;;;;;97.60;50.20;;;;;;;;;;6156838;23;20004;-62
2022/01/24 16:19:01;;;;;;;127.43;65.50;;;;;;;;;;6156990;23;20006;-62
2022/01/24 16:21:38;;;;;;;91.25;47.55;;;;;;;;;;6156618;23;20417;-64
2022/01/24 16:26:44;;;;;;;59.20;32.80;;;;;;;;;;6157072;23;20006;-64
2022/01/24 16:29:09;;;;;;;75.82;40.47;;;;;;;;;;6156439;23;20009;-64
2022/01/24 16:31:35;;;;;;;72.18;37.72;;;;;;;;;;6156048;23;20009;-64
2022/01/24 16:34:06;;;;;;;72.78;41.00;;;;;;;;;;6156105;23;20001;-64